createdAt,value
2022-09-28T00:00:29.953Z,74.21
2022-09-28T00:03:00.958Z,74.29
2022-09-28T00:05:31.026Z,74.67
2022-09-28T00:08:00.891Z,74.51
2022-09-28T00:10:30.034Z,74.99
2022-09-28T00:13:01.954Z,75.15
2022-09-28T00:15:31.065Z,74.97
2022-09-28T00:18:01.588Z,74.95
2022-09-28T00:20:30.778Z,75.22
2022-09-28T00:22:59.991Z,75.52
2022-09-28T00:25:30.090Z,75.21
2022-09-28T00:27:59.204Z,75.02
2022-09-28T00:30:28.422Z,75.01
2022-09-28T00:32:57.612Z,75.10
2022-09-28T00:35:28.113Z,74.91
2022-09-28T00:37:57.250Z,74.79
2022-09-28T00:40:26.505Z,75.17
2022-09-28T00:42:55.790Z,75.04
2022-09-28T00:45:27.071Z,74.81
2022-09-28T00:48:00.423Z,75.25
2022-09-28T00:50:35.425Z,75.18
2022-09-28T00:53:12.930Z,74.74
2022-09-28T00:55:45.942Z,74.60
2022-09-28T00:58:20.806Z,74.84
2022-09-28T01:00:50.813Z,75.22
2022-09-28T01:03:20.097Z,75.15
2022-09-28T01:05:52.988Z,75.45
2022-09-28T01:08:25.020Z,75.75
2022-09-28T01:10:54.723Z,75.58
2022-09-28T01:13:26.100Z,75.64
2022-09-28T01:16:04.783Z,75.71
2022-09-28T01:18:43.662Z,75.44
2022-09-28T01:21:20.159Z,75.61
2022-09-28T01:24:36.238Z,76.00
2022-09-28T01:27:15.839Z,76.05
2022-09-28T01:29:58.163Z,76.00
2022-09-28T01:32:43.825Z,76.00
2022-09-28T01:35:18.634Z,76.00
2022-09-28T01:37:53.919Z,76.21
2022-09-28T01:40:27.580Z,75.80
2022-09-28T01:43:04.193Z,75.89
2022-09-28T01:45:46.596Z,76.28
2022-09-28T01:48:25.221Z,76.25
2022-09-28T01:50:59.537Z,76.70
2022-09-28T01:53:38.121Z,76.44
2022-09-28T01:56:14.516Z,76.41
2022-09-28T01:58:50.813Z,76.26
2022-09-28T02:01:26.346Z,76.56
2022-09-28T02:04:04.818Z,76.77
2022-09-28T02:06:39.676Z,76.13
2022-09-28T02:09:12.839Z,75.85
2022-09-28T02:11:51.621Z,75.87
2022-09-28T02:14:24.317Z,75.99
2022-09-28T02:16:55.240Z,76.95
2022-09-28T02:19:32.922Z,76.57
2022-09-28T02:22:11.804Z,76.31
2022-09-28T02:24:47.981Z,76.38
2022-09-28T02:27:35.437Z,76.62
2022-09-28T02:30:08.585Z,76.52
2022-09-28T02:32:44.326Z,76.40
2022-09-28T02:35:19.295Z,76.50
2022-09-28T02:37:49.571Z,76.61
2022-09-28T02:40:22.807Z,76.29
2022-09-28T02:43:01.159Z,76.53
2022-09-28T02:45:48.905Z,76.71
2022-09-28T02:49:00.230Z,77.09
2022-09-28T02:51:51.204Z,77.50
2022-09-28T02:55:07.443Z,77.95
2022-09-28T02:57:53.180Z,77.23
2022-09-28T03:00:25.141Z,77.33
2022-09-28T03:03:10.461Z,77.54
2022-09-28T03:05:48.287Z,77.62
2022-09-28T03:08:25.014Z,77.56
2022-09-28T03:11:00.091Z,77.80
2022-09-28T03:13:31.094Z,77.93
2022-09-28T03:16:11.668Z,77.88
2022-09-28T03:18:43.482Z,77.90
2022-09-28T03:21:14.874Z,77.75
2022-09-28T03:23:44.878Z,77.73
2022-09-28T03:26:14.696Z,77.44
2022-09-28T03:28:44.321Z,77.97
2022-09-28T03:31:18.801Z,78.18
2022-09-28T03:33:49.464Z,78.36
2022-09-28T03:36:18.685Z,78.39
2022-09-28T03:38:48.315Z,78.99
2022-09-28T03:41:18.191Z,78.89
2022-09-28T03:43:47.444Z,79.14
2022-09-28T03:46:17.075Z,79.11
2022-09-28T03:48:51.739Z,79.20
2022-09-28T03:51:21.057Z,79.50
2022-09-28T03:53:50.246Z,79.62
2022-09-28T03:56:19.567Z,78.76
2022-09-28T03:58:49.196Z,79.36
2022-09-28T04:01:19.315Z,79.38
2022-09-28T04:03:56.336Z,79.19
2022-09-28T04:06:26.666Z,79.53
2022-09-28T04:08:56.157Z,79.09
2022-09-28T04:11:25.538Z,79.43
2022-09-28T04:13:55.237Z,79.07
2022-09-28T04:16:25.868Z,78.99
2022-09-28T04:19:08.016Z,79.35
2022-09-28T04:21:56.800Z,79.45
2022-09-28T04:24:26.675Z,79.47
2022-09-28T04:27:16.594Z,79.12
2022-09-28T04:29:44.856Z,78.99
2022-09-28T04:32:16.216Z,78.88
2022-09-28T04:34:46.810Z,78.92
2022-09-28T04:37:16.224Z,79.53
2022-09-28T04:39:48.538Z,79.29
2022-09-28T04:42:20.910Z,79.27
2022-09-28T04:44:51.979Z,78.84
2022-09-28T04:47:21.287Z,78.77
2022-09-28T04:50:03.874Z,78.88
2022-09-28T04:52:38.668Z,79.10
2022-09-28T04:55:12.694Z,78.91
2022-09-28T04:57:41.984Z,78.83
2022-09-28T05:00:13.208Z,78.60
2022-09-28T05:02:47.057Z,78.75
2022-09-28T05:05:50.296Z,78.91
2022-09-28T05:08:39.708Z,79.40
2022-09-28T05:11:12.800Z,79.49
2022-09-28T05:13:45.450Z,79.50
2022-09-28T05:16:17.624Z,79.61
2022-09-28T05:19:07.515Z,79.29
2022-09-28T05:21:38.267Z,79.68
2022-09-28T05:24:08.471Z,79.27
2022-09-28T05:26:40.319Z,79.24
2022-09-28T05:29:11.915Z,79.58
2022-09-28T05:31:43.898Z,79.57
2022-09-28T05:34:19.099Z,79.50
2022-09-28T05:36:49.799Z,79.51
2022-09-28T05:39:20.379Z,79.74
2022-09-28T05:41:49.777Z,80.02
2022-09-28T05:44:19.031Z,79.98
2022-09-28T05:46:49.900Z,80.05
2022-09-28T05:49:19.734Z,80.14
2022-09-28T05:51:51.305Z,80.02
2022-09-28T05:54:20.663Z,80.55
2022-09-28T05:56:50.045Z,80.24
2022-09-28T05:59:19.413Z,80.39
2022-09-28T06:01:48.585Z,80.64
2022-09-28T06:04:18.622Z,80.54
2022-09-28T06:06:51.635Z,80.54
2022-09-28T06:09:25.680Z,80.35
2022-09-28T06:12:04.083Z,80.46
2022-09-28T06:14:57.132Z,80.74
2022-09-28T06:17:26.391Z,80.42
2022-09-28T06:20:15.698Z,80.60
2022-09-28T06:23:06.541Z,80.71
2022-09-28T06:25:35.909Z,81.17
2022-09-28T06:28:07.929Z,80.87
2022-09-28T06:30:39.223Z,80.48
2022-09-28T06:33:15.127Z,81.15
2022-09-28T06:35:44.761Z,80.67
2022-09-28T06:38:15.345Z,81.80
2022-09-28T06:40:45.064Z,81.32
2022-09-28T06:43:16.236Z,81.33
2022-09-28T06:46:12.858Z,81.47
2022-09-28T06:49:00.783Z,81.42
2022-09-28T06:52:06.202Z,82.23
2022-09-28T06:54:55.391Z,81.78
2022-09-28T06:57:31.062Z,81.70
2022-09-28T07:00:00.295Z,82.07
2022-09-28T07:02:29.632Z,82.25
2022-09-28T07:05:19.934Z,82.39
2022-09-28T07:07:59.203Z,82.33
2022-09-28T07:10:47.111Z,82.89
2022-09-28T07:13:49.925Z,82.53
2022-09-28T07:16:26.766Z,81.67
2022-09-28T07:18:57.751Z,81.35
2022-09-28T07:21:30.187Z,81.17
2022-09-28T07:24:03.463Z,78.86
2022-09-28T07:26:52.858Z,78.94
2022-09-28T07:29:38.317Z,78.12
2022-09-28T07:32:37.566Z,78.10
2022-09-28T07:35:25.257Z,78.31
2022-09-28T07:38:01.568Z,78.66
2022-09-28T07:40:49.805Z,79.14
2022-09-28T07:43:22.021Z,79.22
2022-09-28T07:45:55.830Z,79.38
2022-09-28T07:48:26.795Z,79.78
2022-09-28T07:51:17.914Z,80.38
2022-09-28T07:53:56.959Z,80.47
2022-09-28T07:56:41.037Z,80.10
2022-09-28T07:59:34.377Z,79.63
2022-09-28T08:02:22.593Z,78.86
2022-09-28T08:04:52.354Z,78.81
2022-09-28T08:07:24.257Z,77.83
2022-09-28T08:10:01.221Z,77.62
2022-09-28T08:12:30.393Z,72.32
2022-09-28T08:15:19.266Z,73.14
2022-09-28T08:17:54.898Z,70.74
2022-09-28T08:20:43.032Z,68.90
2022-09-28T08:23:12.537Z,70.72
2022-09-28T08:25:49.097Z,70.04
2022-09-28T08:28:20.157Z,70.09
2022-09-28T08:30:54.611Z,70.13
2022-09-28T08:33:43.194Z,69.84
2022-09-28T08:36:30.901Z,69.82
2022-09-28T08:39:20.114Z,70.30
2022-09-28T08:42:34.573Z,70.09
2022-09-28T08:45:23.346Z,70.50
2022-09-28T08:48:40.908Z,70.32
2022-09-28T08:51:21.273Z,70.29
2022-09-28T08:54:30.112Z,69.85
2022-09-28T08:57:10.668Z,69.80
2022-09-28T08:59:51.409Z,70.38
2022-09-28T09:02:33.855Z,69.80
2022-09-28T09:05:25.782Z,69.46
2022-09-28T09:08:25.235Z,69.59
2022-09-28T09:11:02.154Z,68.98
2022-09-28T09:14:22.924Z,67.87
2022-09-28T09:17:02.718Z,67.85
2022-09-28T09:19:55.231Z,66.63
2022-09-28T09:23:00.813Z,64.81
2022-09-28T09:25:39.428Z,64.30
2022-09-28T09:29:03.370Z,64.41
2022-09-28T09:32:05.440Z,64.86
2022-09-28T09:35:17.638Z,64.82
2022-09-28T09:38:31.269Z,64.86
2022-09-28T09:41:40.474Z,64.01
2022-09-28T09:45:05.909Z,63.58
2022-09-28T09:48:02.049Z,64.03
2022-09-28T09:50:40.054Z,64.29
2022-09-28T09:53:24.885Z,63.51
2022-09-28T09:55:59.559Z,63.54
2022-09-28T09:58:51.515Z,63.29
2022-09-28T10:01:39.874Z,63.27
2022-09-28T10:04:25.915Z,63.11
2022-09-28T10:07:04.712Z,62.23
2022-09-28T10:09:42.550Z,62.88
2022-09-28T10:12:35.226Z,62.96
2022-09-28T10:15:06.786Z,62.30
2022-09-28T10:17:46.002Z,62.15
2022-09-28T10:20:38.352Z,61.60
2022-09-28T10:23:22.826Z,61.80
2022-09-28T10:25:58.118Z,61.90
2022-09-28T10:28:46.653Z,61.83
2022-09-28T10:31:36.344Z,61.74
2022-09-28T10:34:09.148Z,61.54
2022-09-28T10:36:51.413Z,61.34
2022-09-28T10:39:36.734Z,62.30
2022-09-28T10:42:11.370Z,61.43
2022-09-28T10:44:54.751Z,61.13
2022-09-28T10:47:38.514Z,61.29
2022-09-28T10:50:23.775Z,61.31
2022-09-28T10:53:19.193Z,61.47
2022-09-28T10:56:22.202Z,61.79
2022-09-28T10:59:02.212Z,60.76
2022-09-28T11:01:44.915Z,61.19
2022-09-28T11:04:23.842Z,61.08
2022-09-28T11:09:33.075Z,62.35
2022-09-28T11:12:15.453Z,62.02
2022-09-28T11:14:48.897Z,61.94
2022-09-28T11:17:29.467Z,61.23
2022-09-28T11:20:01.942Z,60.53
2022-09-28T11:22:42.608Z,60.33
2022-09-28T11:25:24.987Z,58.88
2022-09-28T11:28:04.862Z,57.85
2022-09-28T11:30:46.242Z,56.96
2022-09-28T11:33:46.274Z,57.25
2022-09-28T11:37:21.341Z,56.23
2022-09-28T11:40:02.220Z,55.99
2022-09-28T11:42:48.074Z,56.29
2022-09-28T11:45:48.181Z,56.07
2022-09-28T11:48:26.823Z,56.05
2022-09-28T11:51:03.883Z,56.79
2022-09-28T11:53:40.689Z,56.62
2022-09-28T11:56:25.398Z,56.52
2022-09-28T11:59:04.066Z,55.92
2022-09-28T12:01:49.990Z,55.73
2022-09-28T12:04:35.480Z,55.44
2022-09-28T12:07:10.273Z,54.94
2022-09-28T12:09:47.394Z,53.97
2022-09-28T12:12:31.396Z,55.38
2022-09-28T12:15:06.980Z,55.15
2022-09-28T12:17:43.783Z,55.21
2022-09-28T12:20:23.224Z,55.50
2022-09-28T12:23:08.453Z,54.79
2022-09-28T12:25:46.805Z,55.17
2022-09-28T12:28:26.858Z,55.39
2022-09-28T12:30:59.983Z,55.63
2022-09-28T12:33:29.152Z,55.92
2022-09-28T12:36:10.828Z,56.12
2022-09-28T12:39:18.095Z,59.24
2022-09-28T12:42:06.376Z,64.14
2022-09-28T12:45:02.430Z,66.23
2022-09-28T12:48:02.377Z,65.63
2022-09-28T12:50:44.745Z,67.10
2022-09-28T12:53:35.832Z,69.21
2022-09-28T12:56:12.332Z,72.79
2022-09-28T12:59:01.080Z,73.78
2022-09-28T13:01:54.729Z,75.69
2022-09-28T13:04:48.564Z,74.89
2022-09-28T13:07:27.626Z,75.48
2022-09-28T13:10:14.512Z,74.86
2022-09-28T13:12:59.439Z,75.61
2022-09-28T13:15:39.557Z,75.14
2022-09-28T13:18:20.616Z,74.59
2022-09-28T13:21:15.826Z,74.60
2022-09-28T13:23:48.606Z,72.52
2022-09-28T13:26:27.256Z,69.96
2022-09-28T13:29:04.976Z,68.86
2022-09-28T13:31:37.184Z,67.28
2022-09-28T13:34:22.633Z,67.16
2022-09-28T13:37:24.201Z,63.35
2022-09-28T13:39:56.600Z,65.12
2022-09-28T13:43:19.703Z,63.34
2022-09-28T13:45:59.125Z,60.01
2022-09-28T13:48:46.155Z,52.89
2022-09-28T13:51:38.205Z,56.73
2022-09-28T13:54:31.598Z,51.17
2022-09-28T13:57:14.552Z,51.43
2022-09-28T14:00:01.162Z,49.64
2022-09-28T14:02:37.809Z,49.99
2022-09-28T14:05:35.203Z,54.03
2022-09-28T14:08:32.251Z,53.79
2022-09-28T14:11:44.174Z,55.75
2022-09-28T14:14:49.208Z,56.99
2022-09-28T14:18:08.514Z,59.90
2022-09-28T14:20:38.723Z,61.56
2022-09-28T14:23:58.951Z,64.82
2022-09-28T14:27:14.206Z,64.92
2022-09-28T14:29:43.408Z,65.45
2022-09-28T14:32:37.476Z,65.00
2022-09-28T14:35:18.948Z,62.18
2022-09-28T14:38:08.924Z,59.83
2022-09-28T14:41:10.684Z,55.51
2022-09-28T14:44:05.052Z,55.96
2022-09-28T14:46:45.769Z,53.90
2022-09-28T14:50:00.681Z,49.92
2022-09-28T14:52:46.002Z,49.25
2022-09-28T14:55:18.932Z,50.72
2022-09-28T14:57:56.641Z,46.93
2022-09-28T15:00:30.426Z,48.42
2022-09-28T15:03:06.807Z,46.85
2022-09-28T15:05:47.325Z,45.89
2022-09-28T15:08:20.364Z,45.71
2022-09-28T15:10:51.876Z,47.83
2022-09-28T15:13:26.251Z,48.22
2022-09-28T15:16:01.006Z,48.10
2022-09-28T15:19:24.493Z,48.15
2022-09-28T15:21:55.180Z,50.13
2022-09-28T15:24:32.949Z,51.40
2022-09-28T15:27:03.167Z,52.62
2022-09-28T15:29:33.483Z,54.19
2022-09-28T15:32:04.179Z,56.00
2022-09-28T15:34:54.841Z,58.40
2022-09-28T15:37:29.241Z,57.64
2022-09-28T15:40:00.314Z,57.98
2022-09-28T15:42:36.323Z,57.27
2022-09-28T15:45:26.864Z,57.83
2022-09-28T15:48:27.353Z,55.56
2022-09-28T15:51:10.967Z,54.88
2022-09-28T15:53:52.561Z,55.56
2022-09-28T15:56:21.949Z,56.47
2022-09-28T15:59:20.099Z,57.14
2022-09-28T16:01:50.027Z,56.99
2022-09-28T16:04:41.561Z,57.35
2022-09-28T16:07:47.132Z,57.37
2022-09-28T16:10:37.165Z,57.03
2022-09-28T16:13:20.207Z,57.91
2022-09-28T16:15:59.874Z,57.98
2022-09-28T16:18:31.264Z,58.34
2022-09-28T16:21:28.346Z,57.48
2022-09-28T16:23:58.344Z,56.55
2022-09-28T16:26:33.904Z,56.70
2022-09-28T16:29:10.830Z,56.44
2022-09-28T16:31:44.101Z,56.30
2022-09-28T16:34:21.328Z,55.66
2022-09-28T16:36:52.930Z,55.54
2022-09-28T16:39:22.278Z,55.16
2022-09-28T16:42:01.866Z,55.46
2022-09-28T16:44:32.789Z,54.66
2022-09-28T16:47:01.974Z,54.71
2022-09-28T16:49:32.346Z,54.29
2022-09-28T16:52:02.483Z,54.64
2022-09-28T16:54:49.018Z,55.14
2022-09-28T16:57:19.626Z,55.89
2022-09-28T16:59:48.769Z,55.92
2022-09-28T17:02:45.294Z,56.26
2022-09-28T17:05:10.318Z,56.68
2022-09-28T17:07:40.328Z,56.65
2022-09-28T17:10:19.312Z,56.91
2022-09-28T17:12:50.631Z,57.48
2022-09-28T17:15:19.870Z,57.74
2022-09-28T17:17:49.411Z,58.12
2022-09-28T17:20:23.160Z,58.51
2022-09-28T17:22:52.436Z,58.59
2022-09-28T17:25:23.053Z,58.52
2022-09-28T17:27:56.377Z,57.74
2022-09-28T17:30:25.886Z,58.39
2022-09-28T17:32:55.122Z,58.74
2022-09-28T17:35:25.392Z,58.66
2022-09-28T17:37:55.072Z,58.27
2022-09-28T17:40:28.509Z,57.92
2022-09-28T17:43:00.600Z,58.52
2022-09-28T17:45:31.359Z,58.52
2022-09-28T17:48:01.179Z,58.61
2022-09-28T17:50:34.147Z,58.72
2022-09-28T17:53:06.212Z,58.97
2022-09-28T17:55:37.338Z,59.12
2022-09-28T17:58:18.469Z,59.35
2022-09-28T18:00:50.059Z,59.41
2022-09-28T18:03:21.472Z,60.26
2022-09-28T18:06:02.949Z,60.21
2022-09-28T18:08:32.358Z,60.45
2022-09-28T18:11:02.942Z,60.74
2022-09-28T18:13:33.605Z,60.73
2022-09-28T18:16:03.061Z,61.02
2022-09-28T18:18:36.808Z,61.32
2022-09-28T18:21:06.363Z,61.56
2022-09-28T18:23:37.795Z,61.97
2022-09-28T18:26:11.881Z,61.79
2022-09-28T18:28:43.295Z,62.60
2022-09-28T18:31:16.278Z,62.56
2022-09-28T18:33:50.319Z,62.52
2022-09-28T18:36:19.508Z,62.98
2022-09-28T18:38:48.648Z,63.27
2022-09-28T18:41:17.959Z,64.00
2022-09-28T18:43:51.775Z,64.04
2022-09-28T18:46:21.081Z,63.67
2022-09-28T18:48:50.268Z,64.39
2022-09-28T18:51:20.633Z,64.28
2022-09-28T18:53:50.188Z,64.80
2022-09-28T18:56:21.161Z,64.68
2022-09-28T18:58:52.684Z,65.56
2022-09-28T19:01:29.903Z,65.27
2022-09-28T19:04:01.365Z,65.93
2022-09-28T19:06:31.866Z,66.04
2022-09-28T19:09:02.013Z,67.06
2022-09-28T19:11:31.155Z,67.08
2022-09-28T19:14:03.230Z,67.35
2022-09-28T19:16:34.881Z,67.20
2022-09-28T19:19:04.148Z,67.78
2022-09-28T19:21:33.731Z,67.39
2022-09-28T19:24:04.129Z,67.29
2022-09-28T19:26:34.304Z,67.64
2022-09-28T19:29:04.861Z,67.21
2022-09-28T19:31:34.847Z,67.83
2022-09-28T19:34:04.284Z,67.81
2022-09-28T19:36:33.832Z,68.56
2022-09-28T19:39:04.060Z,68.10
2022-09-28T19:41:51.253Z,68.46
2022-09-28T19:44:25.807Z,67.92
2022-09-28T19:46:57.607Z,67.60
2022-09-28T19:49:33.130Z,67.84
2022-09-28T19:52:18.466Z,68.26
2022-09-28T19:54:56.840Z,68.45
2022-09-28T19:57:28.772Z,67.99
2022-09-28T20:00:03.149Z,68.37
2022-09-28T20:02:36.311Z,68.50
2022-09-28T20:05:06.201Z,68.34
2022-09-28T20:07:36.297Z,68.59
2022-09-28T20:10:06.489Z,68.17
2022-09-28T20:12:35.747Z,68.97
2022-09-28T20:15:10.768Z,69.41
2022-09-28T20:17:40.049Z,69.52
2022-09-28T20:20:10.115Z,69.34
2022-09-28T20:22:41.239Z,69.37
2022-09-28T20:25:11.195Z,69.54
2022-09-28T20:27:40.455Z,69.71
2022-09-28T20:30:13.123Z,70.75
2022-09-28T20:32:45.066Z,71.23
2022-09-28T20:35:30.313Z,70.29
2022-09-28T20:38:08.997Z,70.41
2022-09-28T20:40:40.289Z,70.72
2022-09-28T20:43:12.072Z,71.77
2022-09-28T20:45:43.073Z,71.40
2022-09-28T20:48:12.264Z,71.34
2022-09-28T20:50:42.809Z,71.50
2022-09-28T20:53:12.256Z,71.42
2022-09-28T20:55:41.593Z,71.50
2022-09-28T20:58:10.679Z,72.03
2022-09-28T21:00:41.512Z,72.43
2022-09-28T21:03:10.781Z,72.13
2022-09-28T21:05:40.101Z,72.16
2022-09-28T21:08:10.311Z,72.55
2022-09-28T21:10:44.734Z,73.24
2022-09-28T21:13:13.986Z,72.47
2022-09-28T21:15:44.642Z,73.42
2022-09-28T21:18:13.997Z,72.78
2022-09-28T21:20:47.549Z,72.90
2022-09-28T21:23:18.255Z,73.66
2022-09-28T21:25:48.917Z,74.04
2022-09-28T21:28:19.185Z,73.33
2022-09-28T21:30:53.363Z,73.47
2022-09-28T21:33:22.588Z,73.26
2022-09-28T21:35:52.042Z,73.31
2022-09-28T21:38:21.406Z,73.36
2022-09-28T21:40:57.071Z,74.39
2022-09-28T21:43:27.371Z,73.98
2022-09-28T21:45:58.943Z,74.24
2022-09-28T21:48:29.979Z,74.36
2022-09-28T21:51:00.757Z,74.82
2022-09-28T21:53:32.254Z,74.71
2022-09-28T21:56:03.039Z,74.84
2022-09-28T21:58:34.979Z,75.36
2022-09-28T22:01:08.889Z,75.48
2022-09-28T22:03:38.800Z,75.23
2022-09-28T22:06:09.501Z,75.68
2022-09-28T22:08:39.165Z,75.18
2022-09-28T22:11:11.564Z,76.41
2022-09-28T22:13:44.329Z,75.89
2022-09-28T22:16:15.761Z,76.46
2022-09-28T22:18:45.852Z,75.85
2022-09-28T22:21:19.638Z,76.13
2022-09-28T22:23:49.914Z,76.63
2022-09-28T22:26:21.760Z,76.93
2022-09-28T22:28:53.777Z,76.64
2022-09-28T22:31:27.341Z,76.42
2022-09-28T22:33:57.080Z,77.21
2022-09-28T22:36:26.971Z,77.32
2022-09-28T22:38:57.016Z,76.70
2022-09-28T22:41:26.526Z,76.80
2022-09-28T22:43:56.206Z,77.02
2022-09-28T22:46:29.697Z,76.93
2022-09-28T22:49:00.432Z,76.90
2022-09-28T22:51:31.498Z,77.35
2022-09-28T22:54:01.384Z,78.00
2022-09-28T22:56:31.515Z,77.94
2022-09-28T22:59:01.293Z,77.89
2022-09-28T23:01:32.115Z,77.60
2022-09-28T23:04:01.726Z,77.86
2022-09-28T23:06:31.477Z,78.68
2022-09-28T23:09:01.150Z,78.32
2022-09-28T23:11:30.736Z,78.53
2022-09-28T23:14:01.041Z,78.35
2022-09-28T23:16:31.702Z,78.78
2022-09-28T23:19:00.941Z,78.64
2022-09-28T23:21:30.258Z,79.08
2022-09-28T23:24:02.286Z,79.19
2022-09-28T23:26:34.434Z,79.66
2022-09-28T23:29:03.751Z,79.47
2022-09-28T23:31:34.904Z,79.84
2022-09-28T23:34:06.903Z,79.39
2022-09-28T23:36:36.188Z,79.60
2022-09-28T23:39:05.662Z,80.28
2022-09-28T23:41:34.762Z,80.08
2022-09-28T23:44:04.444Z,79.95
2022-09-28T23:46:35.212Z,80.73
2022-09-28T23:49:04.488Z,80.75
2022-09-28T23:51:33.712Z,80.27
2022-09-28T23:54:05.262Z,80.83
2022-09-28T23:56:34.626Z,80.63
2022-09-28T23:59:03.770Z,81.03
